createdAt,value
2022-10-13T00:00:49.845Z,9.88
2022-10-13T00:03:17.397Z,9.87
2022-10-13T00:05:46.935Z,9.91
2022-10-13T00:08:16.617Z,9.92
2022-10-13T00:10:43.318Z,9.93
2022-10-13T00:13:09.890Z,9.96
2022-10-13T00:15:45.600Z,9.92
2022-10-13T00:18:14.359Z,9.97
2022-10-13T00:20:43.550Z,9.95
2022-10-13T00:23:11.584Z,9.92
2022-10-13T00:25:46.731Z,9.96
2022-10-13T00:28:14.891Z,9.96
2022-10-13T00:30:41.669Z,10.01
2022-10-13T00:33:09.761Z,9.98
2022-10-13T00:35:42.458Z,9.94
2022-10-13T00:38:09.165Z,9.98
2022-10-13T00:40:47.759Z,9.95
2022-10-13T00:43:24.100Z,10.08
2022-10-13T00:45:51.290Z,10.06
2022-10-13T00:48:21.886Z,9.96
2022-10-13T00:50:48.957Z,10.12
2022-10-13T00:53:18.274Z,10.03
2022-10-13T00:55:47.555Z,10.10
2022-10-13T00:58:16.777Z,10.14
2022-10-13T01:00:46.930Z,10.15
2022-10-13T01:03:13.746Z,10.13
2022-10-13T01:05:42.404Z,10.13
2022-10-13T01:08:11.981Z,10.20
2022-10-13T01:10:46.553Z,10.20
2022-10-13T01:13:47.559Z,10.22
2022-10-13T01:16:20.583Z,10.20
2022-10-13T01:19:12.033Z,10.18
2022-10-13T01:21:52.990Z,10.16
2022-10-13T01:24:22.697Z,10.24
2022-10-13T01:27:35.896Z,10.17
2022-10-13T01:30:18.512Z,10.25
2022-10-13T01:33:26.351Z,10.23
2022-10-13T01:36:06.475Z,10.27
2022-10-13T01:38:54.368Z,10.28
2022-10-13T01:41:20.841Z,10.26
2022-10-13T01:44:00.749Z,10.29
2022-10-13T01:46:30.949Z,10.30
2022-10-13T01:49:01.457Z,10.28
2022-10-13T01:51:30.534Z,10.39
2022-10-13T01:53:58.228Z,10.41
2022-10-13T01:56:24.760Z,10.44
2022-10-13T01:58:53.349Z,10.47
2022-10-13T02:02:01.304Z,10.55
2022-10-13T02:04:37.616Z,10.57
2022-10-13T02:07:20.334Z,10.54
2022-10-13T02:10:14.722Z,10.57
2022-10-13T02:12:57.644Z,10.46
2022-10-13T02:15:31.310Z,10.58
2022-10-13T02:17:58.652Z,10.58
2022-10-13T02:20:25.201Z,10.62
2022-10-13T02:22:57.576Z,10.60
2022-10-13T02:25:25.250Z,10.56
2022-10-13T02:27:52.741Z,10.63
2022-10-13T02:30:25.679Z,10.64
2022-10-13T02:32:52.260Z,10.70
2022-10-13T02:35:19.485Z,10.59
2022-10-13T02:37:46.042Z,10.63
2022-10-13T02:40:13.183Z,10.70
2022-10-13T02:42:40.110Z,10.72
2022-10-13T02:45:07.727Z,10.76
2022-10-13T02:47:34.428Z,10.67
2022-10-13T02:50:01.116Z,10.85
2022-10-13T02:52:27.607Z,10.84
2022-10-13T02:54:54.171Z,10.79
2022-10-13T02:57:20.671Z,10.89
2022-10-13T02:59:47.405Z,10.92
2022-10-13T03:02:14.368Z,10.86
2022-10-13T03:04:41.068Z,10.82
2022-10-13T03:07:07.583Z,10.94
2022-10-13T03:15:23.105Z,11.00
2022-10-13T03:17:50.035Z,10.99
2022-10-13T03:20:17.523Z,10.96
2022-10-13T03:22:48.830Z,11.01
2022-10-13T03:25:16.674Z,11.08
2022-10-13T03:27:43.308Z,11.06
2022-10-13T03:30:10.882Z,11.14
2022-10-13T03:32:37.349Z,11.03
2022-10-13T03:35:04.321Z,11.15
2022-10-13T03:37:30.856Z,11.17
2022-10-13T03:39:57.387Z,11.13
2022-10-13T03:42:23.972Z,11.09
2022-10-13T03:44:55.219Z,11.18
2022-10-13T03:47:22.837Z,11.16
2022-10-13T03:49:51.734Z,11.15
2022-10-13T03:52:18.744Z,11.20
2022-10-13T03:54:45.377Z,11.17
2022-10-13T03:57:11.825Z,11.12
2022-10-13T03:59:40.803Z,11.17
2022-10-13T04:02:08.246Z,11.21
2022-10-13T04:04:35.328Z,11.18
2022-10-13T04:07:01.974Z,11.08
2022-10-13T04:09:28.665Z,11.14
2022-10-13T04:11:55.150Z,11.11
2022-10-13T04:14:21.685Z,11.22
2022-10-13T04:16:48.408Z,11.28
2022-10-13T04:19:16.090Z,11.32
2022-10-13T04:21:43.872Z,11.29
2022-10-13T04:24:12.437Z,11.25
2022-10-13T04:26:40.095Z,11.28
2022-10-13T04:29:08.519Z,11.26
2022-10-13T04:31:35.424Z,11.25
2022-10-13T04:34:01.963Z,11.26
2022-10-13T04:36:28.439Z,11.21
2022-10-13T04:38:55.719Z,11.20
2022-10-13T04:41:23.005Z,11.22
2022-10-13T04:43:50.645Z,11.31
2022-10-13T04:46:22.425Z,11.32
2022-10-13T04:48:48.997Z,11.28
2022-10-13T04:51:18.193Z,11.35
2022-10-13T04:53:44.997Z,11.30
2022-10-13T04:56:14.541Z,11.35
2022-10-13T04:58:42.547Z,11.30
2022-10-13T05:01:21.414Z,11.33
2022-10-13T05:03:52.602Z,11.28
2022-10-13T05:06:22.615Z,11.24
2022-10-13T05:08:50.248Z,11.27
2022-10-13T05:11:18.552Z,11.31
2022-10-13T05:13:45.049Z,11.29
2022-10-13T05:16:13.786Z,11.32
2022-10-13T05:18:40.836Z,11.39
2022-10-13T05:21:13.695Z,11.39
2022-10-13T05:23:40.775Z,11.34
2022-10-13T05:26:10.797Z,11.37
2022-10-13T05:28:38.007Z,11.39
2022-10-13T05:31:18.366Z,11.48
2022-10-13T05:33:45.646Z,11.41
2022-10-13T05:36:21.524Z,11.49
2022-10-13T05:38:53.605Z,11.47
2022-10-13T05:41:21.338Z,11.52
2022-10-13T05:43:48.279Z,11.52
2022-10-13T05:46:14.949Z,11.51
2022-10-13T05:48:41.488Z,11.45
2022-10-13T05:51:12.537Z,11.44
2022-10-13T05:53:48.043Z,11.48
2022-10-13T05:56:22.093Z,11.42
2022-10-13T05:58:53.709Z,11.40
2022-10-13T06:01:24.660Z,11.49
2022-10-13T06:03:54.873Z,11.50
2022-10-13T06:06:22.869Z,11.56
2022-10-13T06:08:50.734Z,11.37
2022-10-13T06:11:17.803Z,11.45
2022-10-13T06:13:44.335Z,11.50
2022-10-13T06:16:11.116Z,11.44
2022-10-13T06:18:38.223Z,11.48
2022-10-13T06:21:04.864Z,11.49
2022-10-13T06:23:31.359Z,11.38
2022-10-13T06:25:57.950Z,11.43
2022-10-13T06:28:24.694Z,11.50
2022-10-13T06:30:56.469Z,11.37
2022-10-13T06:33:24.184Z,11.52
2022-10-13T06:35:54.143Z,11.50
2022-10-13T06:38:20.617Z,11.50
2022-10-13T06:40:47.208Z,11.55
2022-10-13T06:43:14.041Z,11.53
2022-10-13T06:45:40.547Z,11.64
2022-10-13T06:48:07.314Z,11.53
2022-10-13T06:50:34.045Z,11.57
2022-10-13T06:53:00.571Z,11.56
2022-10-13T06:55:27.146Z,11.59
2022-10-13T06:57:53.703Z,11.65
2022-10-13T07:00:20.823Z,11.67
2022-10-13T07:02:50.475Z,11.64
2022-10-13T07:05:17.199Z,11.69
2022-10-13T07:07:43.790Z,11.69
2022-10-13T07:10:10.415Z,11.85
2022-10-13T07:12:36.912Z,11.79
2022-10-13T07:15:03.887Z,11.88
2022-10-13T07:17:30.530Z,11.91
2022-10-13T07:19:58.038Z,11.90
2022-10-13T07:22:26.960Z,11.90
2022-10-13T07:24:53.423Z,11.92
2022-10-13T07:27:20.414Z,11.95
2022-10-13T07:29:47.059Z,11.95
2022-10-13T07:32:13.505Z,12.10
2022-10-13T07:34:40.112Z,12.09
2022-10-13T07:37:06.542Z,12.12
2022-10-13T07:39:33.058Z,12.09
2022-10-13T07:41:59.568Z,12.08
2022-10-13T07:44:26.521Z,12.23
2022-10-13T07:46:53.127Z,12.19
2022-10-13T07:49:20.269Z,12.42
2022-10-13T07:51:46.735Z,12.34
2022-10-13T07:54:13.292Z,12.33
2022-10-13T07:56:39.715Z,12.47
2022-10-13T07:59:06.187Z,12.37
2022-10-13T08:01:35.168Z,12.55
2022-10-13T08:04:01.767Z,12.43
2022-10-13T08:06:28.417Z,12.44
2022-10-13T08:08:55.103Z,12.51
2022-10-13T08:11:21.527Z,12.60
2022-10-13T08:13:49.922Z,12.52
2022-10-13T08:16:17.687Z,12.53
2022-10-13T08:18:44.195Z,12.53
2022-10-13T08:24:03.876Z,12.75
2022-10-13T08:26:30.560Z,12.73
2022-10-13T08:29:16.542Z,12.79
2022-10-13T08:31:43.855Z,12.95
2022-10-13T08:34:11.860Z,12.78
2022-10-13T08:36:38.851Z,12.96
2022-10-13T08:39:05.650Z,12.87
2022-10-13T08:41:40.172Z,12.87
2022-10-13T08:45:05.874Z,12.96
2022-10-13T08:47:40.667Z,13.12
2022-10-13T08:50:13.561Z,13.10
2022-10-13T08:53:09.379Z,13.10
2022-10-13T08:55:49.428Z,13.29
2022-10-13T08:58:23.476Z,13.35
2022-10-13T09:01:16.145Z,13.34
2022-10-13T09:04:33.146Z,13.40
2022-10-13T09:07:10.321Z,13.47
2022-10-13T09:09:38.004Z,13.43
2022-10-13T09:12:05.588Z,13.56
2022-10-13T09:14:37.402Z,13.62
2022-10-13T09:17:25.492Z,13.63
2022-10-13T09:20:06.070Z,13.88
2022-10-13T09:22:39.861Z,13.85
2022-10-13T09:25:12.497Z,13.84
2022-10-13T09:27:48.077Z,13.94
2022-10-13T09:30:42.253Z,13.89
2022-10-13T09:33:09.116Z,13.99
2022-10-13T09:35:37.074Z,14.01
2022-10-13T09:38:25.125Z,14.03
2022-10-13T09:41:09.255Z,14.12
2022-10-13T09:43:48.164Z,14.21
2022-10-13T09:46:25.731Z,14.25
2022-10-13T09:48:59.734Z,14.39
2022-10-13T09:51:33.805Z,14.42
2022-10-13T09:54:00.830Z,14.51
2022-10-13T09:56:36.062Z,14.57
2022-10-13T09:59:24.602Z,14.55
2022-10-13T10:01:52.958Z,14.64
2022-10-13T10:04:23.904Z,14.71
2022-10-13T10:06:50.709Z,14.68
2022-10-13T10:09:33.509Z,14.69
2022-10-13T10:12:02.149Z,14.72
2022-10-13T10:14:32.405Z,14.77
2022-10-13T10:17:26.750Z,14.79
2022-10-13T10:20:20.856Z,14.84
2022-10-13T10:23:11.392Z,14.93
2022-10-13T10:25:42.639Z,14.99
2022-10-13T10:28:47.291Z,15.16
2022-10-13T10:31:23.605Z,15.20
2022-10-13T10:34:15.498Z,15.27
2022-10-13T10:37:36.319Z,15.37
2022-10-13T10:40:20.219Z,15.44
2022-10-13T10:43:10.666Z,15.51
2022-10-13T10:45:39.178Z,15.51
2022-10-13T10:48:24.850Z,15.48
2022-10-13T10:50:53.311Z,15.49
2022-10-13T10:53:54.549Z,15.48
2022-10-13T10:56:41.051Z,15.50
2022-10-13T10:59:18.838Z,15.46
2022-10-13T11:02:07.367Z,15.47
2022-10-13T11:04:44.140Z,15.46
2022-10-13T11:07:13.350Z,15.51
2022-10-13T11:09:42.899Z,15.52
2022-10-13T11:12:22.205Z,15.46
2022-10-13T11:14:55.182Z,15.50
2022-10-13T11:17:27.808Z,15.57
2022-10-13T11:19:55.077Z,15.56
2022-10-13T11:22:24.820Z,15.58
2022-10-13T11:24:58.989Z,15.65
2022-10-13T11:27:28.296Z,15.67
2022-10-13T11:29:58.596Z,15.63
2022-10-13T11:32:30.437Z,15.68
2022-10-13T11:35:00.902Z,15.72
2022-10-13T11:38:06.805Z,15.72
2022-10-13T11:40:46.299Z,15.72
2022-10-13T11:43:31.165Z,15.72
2022-10-13T11:45:57.794Z,15.73
2022-10-13T11:48:27.318Z,15.70
2022-10-13T11:51:29.458Z,15.74
2022-10-13T11:54:04.398Z,15.75
2022-10-13T11:56:51.523Z,15.61
2022-10-13T11:59:41.048Z,15.58
2022-10-13T12:02:15.217Z,15.63
2022-10-13T12:04:58.657Z,15.65
2022-10-13T12:07:30.407Z,15.60
2022-10-13T12:10:00.400Z,15.58
2022-10-13T12:12:27.454Z,15.52
2022-10-13T12:14:57.806Z,15.49
2022-10-13T12:17:27.146Z,15.52
2022-10-13T12:19:59.102Z,15.52
2022-10-13T12:22:26.140Z,15.51
2022-10-13T12:25:05.087Z,15.50
2022-10-13T12:27:41.759Z,15.52
2022-10-13T12:30:22.585Z,15.48
2022-10-13T12:32:51.353Z,15.38
2022-10-13T12:35:20.045Z,15.38
2022-10-13T12:37:47.904Z,15.43
2022-10-13T12:40:16.585Z,15.45
2022-10-13T12:42:44.000Z,15.39
2022-10-13T12:45:15.930Z,15.42
2022-10-13T12:47:45.310Z,15.41
2022-10-13T12:50:30.091Z,15.28
2022-10-13T12:53:05.366Z,15.34
2022-10-13T12:55:33.301Z,15.34
2022-10-13T12:58:04.015Z,15.37
2022-10-13T13:00:30.976Z,15.31
2022-10-13T13:03:03.761Z,15.32
2022-10-13T13:05:31.527Z,15.31
2022-10-13T13:07:58.356Z,15.26
2022-10-13T13:10:24.935Z,15.25
2022-10-13T13:12:53.097Z,15.18
2022-10-13T13:15:25.833Z,15.17
2022-10-13T13:17:59.559Z,15.15
2022-10-13T13:20:43.319Z,15.16
2022-10-13T13:23:13.556Z,15.03
2022-10-13T13:25:55.454Z,15.13
2022-10-13T13:31:32.192Z,15.22
2022-10-13T13:34:02.193Z,15.18
2022-10-13T13:36:30.857Z,15.26
2022-10-13T13:38:57.423Z,15.32
2022-10-13T13:41:27.927Z,15.29
2022-10-13T13:43:54.486Z,15.35
2022-10-13T13:46:25.680Z,15.39
2022-10-13T13:48:52.445Z,15.41
2022-10-13T13:51:20.072Z,15.45
2022-10-13T13:53:46.787Z,15.44
2022-10-13T13:56:14.763Z,15.44
2022-10-13T13:58:41.497Z,15.47
2022-10-13T14:01:08.040Z,15.55
2022-10-13T14:03:34.619Z,15.64
2022-10-13T14:06:01.128Z,15.69
2022-10-13T14:08:31.724Z,15.71
2022-10-13T14:10:58.667Z,15.72
2022-10-13T14:13:25.482Z,15.70
2022-10-13T14:15:59.484Z,15.72
2022-10-13T14:18:26.330Z,15.76
2022-10-13T14:20:52.865Z,15.78
2022-10-13T14:23:20.021Z,15.81
2022-10-13T14:25:46.687Z,15.78
2022-10-13T14:28:17.921Z,15.79
2022-10-13T14:30:45.080Z,15.77
2022-10-13T14:33:11.621Z,15.79
2022-10-13T14:35:38.125Z,15.82
2022-10-13T14:38:04.690Z,15.78
2022-10-13T14:40:31.322Z,15.78
2022-10-13T14:42:57.832Z,15.81
2022-10-13T14:45:24.406Z,15.66
2022-10-13T14:47:53.606Z,15.72
2022-10-13T14:50:20.256Z,15.73
2022-10-13T14:52:46.786Z,15.75
2022-10-13T14:55:13.466Z,15.74
2022-10-13T14:57:40.244Z,15.77
2022-10-13T15:00:07.342Z,15.73
2022-10-13T15:02:33.829Z,15.72
2022-10-13T15:05:00.346Z,15.73
2022-10-13T15:07:26.955Z,15.65
2022-10-13T15:10:04.985Z,15.62
2022-10-13T15:12:32.368Z,15.58
2022-10-13T15:14:59.104Z,15.62
2022-10-13T15:17:25.994Z,15.56
2022-10-13T15:19:52.487Z,15.52
2022-10-13T15:22:19.248Z,15.51
2022-10-13T15:24:46.212Z,15.47
2022-10-13T15:27:12.708Z,15.50
2022-10-13T15:29:39.231Z,15.43
2022-10-13T15:32:11.034Z,15.34
2022-10-13T15:34:40.762Z,15.42
2022-10-13T15:37:07.666Z,15.35
2022-10-13T15:39:34.225Z,15.35
2022-10-13T15:42:00.764Z,15.39
2022-10-13T15:44:27.972Z,15.36
2022-10-13T15:47:07.429Z,15.36
2022-10-13T15:49:37.847Z,15.27
2022-10-13T15:52:04.669Z,15.26
2022-10-13T15:54:35.783Z,15.24
2022-10-13T15:57:02.311Z,15.19
2022-10-13T15:59:28.861Z,15.19
2022-10-13T16:01:55.325Z,15.15
2022-10-13T16:04:25.492Z,15.11
2022-10-13T16:06:51.986Z,15.10
2022-10-13T16:09:18.694Z,15.13
2022-10-13T16:11:45.421Z,15.14
2022-10-13T16:14:12.030Z,15.10
2022-10-13T16:16:38.561Z,15.07
2022-10-13T16:19:05.097Z,15.04
2022-10-13T16:21:31.612Z,15.03
2022-10-13T16:23:59.488Z,15.03
2022-10-13T16:26:26.249Z,14.99
2022-10-13T16:28:57.077Z,15.02
2022-10-13T16:31:26.705Z,14.95
2022-10-13T16:33:54.496Z,14.97
2022-10-13T16:36:21.039Z,14.93
2022-10-13T16:38:48.054Z,14.85
2022-10-13T16:41:17.411Z,14.83
2022-10-13T16:43:45.184Z,14.84
2022-10-13T16:46:13.827Z,14.77
2022-10-13T16:48:40.906Z,14.79
2022-10-13T16:51:09.743Z,14.75
2022-10-13T16:53:36.629Z,14.77
2022-10-13T16:56:04.194Z,14.73
2022-10-13T16:58:31.130Z,14.72
2022-10-13T17:01:09.241Z,14.68
2022-10-13T17:03:45.868Z,14.66
2022-10-13T17:06:14.407Z,14.64
2022-10-13T17:08:42.271Z,14.65
2022-10-13T17:11:10.255Z,14.64
2022-10-13T17:13:37.462Z,14.60
2022-10-13T17:16:04.241Z,14.56
2022-10-13T17:18:30.800Z,14.56
2022-10-13T17:21:01.835Z,14.52
2022-10-13T17:23:29.796Z,14.48
2022-10-13T17:26:01.877Z,14.44
2022-10-13T17:28:33.321Z,14.44
2022-10-13T17:31:08.907Z,14.44
2022-10-13T17:37:54.717Z,14.45
2022-10-13T17:40:32.502Z,14.42
2022-10-13T17:42:59.544Z,14.45
2022-10-13T17:45:53.621Z,14.33
2022-10-13T17:48:28.853Z,14.37
2022-10-13T17:54:50.325Z,14.25
2022-10-13T17:57:57.607Z,14.20
2022-10-13T18:00:43.794Z,14.15
2022-10-13T18:03:35.409Z,13.98
2022-10-13T18:06:02.124Z,13.87
2022-10-13T18:08:37.342Z,13.81
2022-10-13T18:11:11.018Z,13.76
2022-10-13T18:13:41.706Z,13.68
2022-10-13T18:16:13.543Z,13.57
2022-10-13T18:18:49.211Z,13.65
2022-10-13T18:24:38.993Z,13.61
2022-10-13T18:27:10.616Z,13.52
2022-10-13T18:29:37.464Z,13.37
2022-10-13T18:32:16.394Z,13.40
2022-10-13T18:34:46.124Z,13.41
2022-10-13T18:37:15.972Z,13.16
2022-10-13T18:40:24.801Z,13.36
2022-10-13T18:43:27.240Z,13.46
2022-10-13T18:45:56.367Z,13.45
2022-10-13T18:48:25.869Z,13.33
2022-10-13T18:50:57.875Z,13.46
2022-10-13T18:53:47.982Z,13.20
2022-10-13T18:56:48.942Z,13.31
2022-10-13T18:59:21.641Z,13.27
2022-10-13T19:02:00.256Z,13.39
2022-10-13T19:04:27.321Z,13.49
2022-10-13T19:10:16.027Z,13.46
2022-10-13T19:17:41.457Z,13.39
2022-10-13T19:20:12.168Z,13.40
2022-10-13T19:22:39.131Z,13.42
2022-10-13T19:25:06.401Z,13.34
2022-10-13T19:27:33.707Z,13.36
2022-10-13T19:30:02.346Z,13.25
2022-10-13T19:32:31.795Z,13.31
2022-10-13T19:34:59.896Z,13.19
2022-10-13T19:37:28.046Z,13.32
2022-10-13T19:39:54.842Z,13.33
2022-10-13T19:42:22.884Z,13.30
2022-10-13T19:44:50.587Z,13.27
2022-10-13T19:47:21.252Z,13.02
2022-10-13T19:49:48.124Z,13.14
2022-10-13T19:52:14.632Z,13.10
2022-10-13T19:54:41.188Z,12.98
2022-10-13T19:57:09.241Z,13.01
2022-10-13T19:59:36.701Z,13.16
2022-10-13T20:02:05.216Z,13.17
2022-10-13T20:04:36.052Z,13.04
2022-10-13T20:07:04.135Z,12.88
2022-10-13T20:09:36.629Z,13.02
2022-10-13T20:12:04.693Z,13.03
2022-10-13T20:14:36.335Z,12.96
2022-10-13T20:17:05.862Z,12.95
2022-10-13T20:19:40.665Z,13.00
2022-10-13T20:22:36.305Z,12.97
2022-10-13T20:25:30.220Z,12.99
2022-10-13T20:32:02.522Z,12.82
2022-10-13T20:34:34.523Z,12.73
2022-10-13T20:37:23.292Z,12.69
2022-10-13T20:40:58.800Z,12.73
2022-10-13T20:47:48.512Z,12.75
2022-10-13T20:53:12.659Z,12.76
2022-10-13T20:56:19.614Z,12.70
2022-10-13T21:02:23.012Z,12.66
2022-10-13T21:04:49.960Z,12.62
2022-10-13T21:07:19.557Z,12.59
2022-10-13T21:09:55.418Z,12.55
2022-10-13T21:12:34.676Z,12.54
2022-10-13T21:15:19.482Z,12.34
2022-10-13T21:17:51.210Z,12.38
2022-10-13T21:20:23.002Z,12.32
2022-10-13T21:22:50.410Z,12.33
2022-10-13T21:25:17.759Z,12.32
2022-10-13T21:27:59.429Z,12.30
2022-10-13T21:30:35.351Z,12.26
2022-10-13T21:33:01.970Z,12.24
2022-10-13T21:35:30.264Z,12.23
2022-10-13T21:37:59.179Z,12.17
2022-10-13T21:40:26.090Z,12.16
2022-10-13T21:43:00.255Z,12.15
2022-10-13T21:45:30.327Z,12.15
2022-10-13T21:47:57.320Z,12.13
2022-10-13T21:50:28.131Z,12.07
2022-10-13T21:52:57.239Z,12.08
2022-10-13T21:55:26.515Z,12.06
2022-10-13T21:57:59.613Z,12.03
2022-10-13T22:00:32.147Z,12.02
2022-10-13T22:03:01.502Z,12.02
2022-10-13T22:05:30.679Z,11.99
2022-10-13T22:07:57.566Z,11.97
2022-10-13T22:10:24.481Z,11.94
2022-10-13T22:12:51.383Z,11.90
2022-10-13T22:15:18.414Z,11.90
2022-10-13T22:17:45.263Z,11.90
2022-10-13T22:20:12.119Z,11.91
2022-10-13T22:22:47.995Z,11.89
2022-10-13T22:25:15.045Z,11.90
2022-10-13T22:27:47.061Z,11.86
2022-10-13T22:30:13.907Z,11.80
2022-10-13T22:32:43.314Z,11.81
2022-10-13T22:35:10.056Z,11.82
2022-10-13T22:37:37.173Z,11.83
2022-10-13T22:40:05.694Z,11.79
2022-10-13T22:42:36.785Z,11.79
2022-10-13T22:45:03.980Z,11.73
2022-10-13T22:47:31.969Z,11.77
2022-10-13T22:49:58.665Z,11.72
2022-10-13T22:52:29.383Z,11.68
2022-10-13T22:54:57.337Z,11.67
2022-10-13T22:57:27.074Z,11.67
2022-10-13T22:59:54.091Z,11.65
2022-10-13T23:02:21.258Z,11.61
2022-10-13T23:04:53.300Z,11.65
2022-10-13T23:07:20.619Z,11.58
2022-10-13T23:09:48.178Z,11.53
2022-10-13T23:12:18.219Z,11.55
2022-10-13T23:14:50.490Z,11.52
2022-10-13T23:17:22.903Z,11.51
2022-10-13T23:19:50.358Z,11.54
2022-10-13T23:22:20.039Z,11.50
2022-10-13T23:24:50.462Z,11.48
2022-10-13T23:27:17.815Z,11.48
2022-10-13T23:29:54.487Z,11.49
2022-10-13T23:32:23.743Z,11.48
2022-10-13T23:34:53.141Z,11.50
2022-10-13T23:37:22.771Z,11.46
2022-10-13T23:39:57.274Z,11.46
2022-10-13T23:42:27.135Z,11.42
2022-10-13T23:44:53.646Z,11.44
2022-10-13T23:47:20.420Z,11.43
2022-10-13T23:49:47.095Z,11.43
2022-10-13T23:52:13.701Z,11.43
2022-10-13T23:54:40.440Z,11.41
2022-10-13T23:57:06.894Z,11.42
2022-10-13T23:59:33.542Z,11.41
